sensor_id;sensor_type;location;lat;lon;timestamp;temperature;humidity
39023;DHT22;25908;51.984;5.928;2023-05-21T00:01:06;16.50;82.50
39023;DHT22;25908;51.984;5.928;2023-05-21T00:03:32;16.50;82.60
39023;DHT22;25908;51.984;5.928;2023-05-21T00:05:58;16.40;82.70
39023;DHT22;25908;51.984;5.928;2023-05-21T00:08:25;16.50;82.80
39023;DHT22;25908;51.984;5.928;2023-05-21T00:10:51;16.50;82.90
39023;DHT22;25908;51.984;5.928;2023-05-21T00:13:16;16.60;83.10
39023;DHT22;25908;51.984;5.928;2023-05-21T00:15:42;16.60;83.20
39023;DHT22;25908;51.984;5.928;2023-05-21T00:18:07;16.50;83.30
39023;DHT22;25908;51.984;5.928;2023-05-21T00:20:33;16.50;83.50
39023;DHT22;25908;51.984;5.928;2023-05-21T00:23:00;16.50;83.70
39023;DHT22;25908;51.984;5.928;2023-05-21T00:25:30;16.50;83.80
39023;DHT22;25908;51.984;5.928;2023-05-21T00:27:55;16.50;83.90
39023;DHT22;25908;51.984;5.928;2023-05-21T00:30:21;16.60;84.00
39023;DHT22;25908;51.984;5.928;2023-05-21T00:32:47;16.50;84.10
39023;DHT22;25908;51.984;5.928;2023-05-21T00:35:12;16.50;84.30
39023;DHT22;25908;51.984;5.928;2023-05-21T00:37:38;16.50;84.40
39023;DHT22;25908;51.984;5.928;2023-05-21T00:40:05;16.50;84.60
39023;DHT22;25908;51.984;5.928;2023-05-21T00:42:33;16.50;84.70
39023;DHT22;25908;51.984;5.928;2023-05-21T00:45:04;16.50;84.80
39023;DHT22;25908;51.984;5.928;2023-05-21T00:47:30;16.50;84.90
39023;DHT22;25908;51.984;5.928;2023-05-21T00:49:56;16.50;85.10
39023;DHT22;25908;51.984;5.928;2023-05-21T00:52:22;16.50;85.20
39023;DHT22;25908;51.984;5.928;2023-05-21T00:54:51;16.50;85.30
39023;DHT22;25908;51.984;5.928;2023-05-21T00:57:23;16.50;85.50
39023;DHT22;25908;51.984;5.928;2023-05-21T00:59:50;16.50;85.60
39023;DHT22;25908;51.984;5.928;2023-05-21T01:02:16;16.50;85.80
39023;DHT22;25908;51.984;5.928;2023-05-21T01:04:44;16.50;86.00
39023;DHT22;25908;51.984;5.928;2023-05-21T01:07:09;16.50;86.10
39023;DHT22;25908;51.984;5.928;2023-05-21T01:09:35;16.40;86.20
39023;DHT22;25908;51.984;5.928;2023-05-21T01:12:01;16.40;86.40
39023;DHT22;25908;51.984;5.928;2023-05-21T01:14:28;16.30;86.60
39023;DHT22;25908;51.984;5.928;2023-05-21T01:16:57;16.40;86.80
39023;DHT22;25908;51.984;5.928;2023-05-21T01:19:26;16.40;87.10
39023;DHT22;25908;51.984;5.928;2023-05-21T01:21:56;16.30;87.30
39023;DHT22;25908;51.984;5.928;2023-05-21T01:24:24;16.30;87.50
39023;DHT22;25908;51.984;5.928;2023-05-21T01:26:49;16.30;87.70
39023;DHT22;25908;51.984;5.928;2023-05-21T01:29:15;16.30;87.80
39023;DHT22;25908;51.984;5.928;2023-05-21T01:34:41;16.30;88.20
39023;DHT22;25908;51.984;5.928;2023-05-21T01:37:20;16.30;88.30
39023;DHT22;25908;51.984;5.928;2023-05-21T01:39:52;16.30;88.50
39023;DHT22;25908;51.984;5.928;2023-05-21T01:42:21;16.30;88.60
39023;DHT22;25908;51.984;5.928;2023-05-21T01:44:50;16.30;88.70
39023;DHT22;25908;51.984;5.928;2023-05-21T01:47:17;16.30;88.90
39023;DHT22;25908;51.984;5.928;2023-05-21T01:49:44;16.30;89.00
39023;DHT22;25908;51.984;5.928;2023-05-21T01:52:10;16.30;89.10
39023;DHT22;25908;51.984;5.928;2023-05-21T01:54:37;16.30;89.30
39023;DHT22;25908;51.984;5.928;2023-05-21T01:57:02;16.20;89.40
39023;DHT22;25908;51.984;5.928;2023-05-21T01:59:28;16.20;89.60
39023;DHT22;25908;51.984;5.928;2023-05-21T02:01:54;16.20;89.80
39023;DHT22;25908;51.984;5.928;2023-05-21T02:04:19;16.20;90.00
39023;DHT22;25908;51.984;5.928;2023-05-21T02:06:45;16.20;90.10
39023;DHT22;25908;51.984;5.928;2023-05-21T02:09:11;16.20;90.10
39023;DHT22;25908;51.984;5.928;2023-05-21T02:11:36;16.20;90.20
39023;DHT22;25908;51.984;5.928;2023-05-21T02:14:02;16.20;90.30
39023;DHT22;25908;51.984;5.928;2023-05-21T02:16:28;16.20;90.40
39023;DHT22;25908;51.984;5.928;2023-05-21T02:18:53;16.20;90.40
39023;DHT22;25908;51.984;5.928;2023-05-21T02:21:21;16.20;90.50
39023;DHT22;25908;51.984;5.928;2023-05-21T02:23:47;16.20;90.60
39023;DHT22;25908;51.984;5.928;2023-05-21T02:26:12;16.10;90.60
39023;DHT22;25908;51.984;5.928;2023-05-21T02:28:38;16.10;90.70
39023;DHT22;25908;51.984;5.928;2023-05-21T02:31:04;16.10;90.70
39023;DHT22;25908;51.984;5.928;2023-05-21T02:33:30;16.10;90.80
39023;DHT22;25908;51.984;5.928;2023-05-21T02:35:56;16.00;90.90
39023;DHT22;25908;51.984;5.928;2023-05-21T02:38:21;16.10;91.00
39023;DHT22;25908;51.984;5.928;2023-05-21T02:40:48;16.10;91.10
39023;DHT22;25908;51.984;5.928;2023-05-21T02:43:14;16.10;91.10
39023;DHT22;25908;51.984;5.928;2023-05-21T02:45:40;16.00;91.20
39023;DHT22;25908;51.984;5.928;2023-05-21T02:48:05;16.00;91.30
39023;DHT22;25908;51.984;5.928;2023-05-21T02:50:31;16.10;91.30
39023;DHT22;25908;51.984;5.928;2023-05-21T02:52:56;16.00;91.40
39023;DHT22;25908;51.984;5.928;2023-05-21T02:55:24;16.00;91.50
39023;DHT22;25908;51.984;5.928;2023-05-21T02:57:50;16.00;91.60
39023;DHT22;25908;51.984;5.928;2023-05-21T03:00:15;15.90;91.70
39023;DHT22;25908;51.984;5.928;2023-05-21T03:02:41;15.90;91.80
39023;DHT22;25908;51.984;5.928;2023-05-21T03:05:07;15.90;91.90
39023;DHT22;25908;51.984;5.928;2023-05-21T03:07:33;15.90;92.00
39023;DHT22;25908;51.984;5.928;2023-05-21T03:09:58;15.90;92.10
39023;DHT22;25908;51.984;5.928;2023-05-21T03:12:24;15.90;92.10
39023;DHT22;25908;51.984;5.928;2023-05-21T03:14:49;15.90;92.20
39023;DHT22;25908;51.984;5.928;2023-05-21T03:17:16;15.90;92.20
39023;DHT22;25908;51.984;5.928;2023-05-21T03:19:42;15.90;92.30
39023;DHT22;25908;51.984;5.928;2023-05-21T03:22:08;16.00;92.40
39023;DHT22;25908;51.984;5.928;2023-05-21T03:24:34;16.00;92.40
39023;DHT22;25908;51.984;5.928;2023-05-21T03:27:01;16.00;92.50
39023;DHT22;25908;51.984;5.928;2023-05-21T03:29:27;15.90;92.50
39023;DHT22;25908;51.984;5.928;2023-05-21T03:31:53;15.90;92.60
39023;DHT22;25908;51.984;5.928;2023-05-21T03:34:19;16.00;92.70
39023;DHT22;25908;51.984;5.928;2023-05-21T03:36:48;15.90;92.70
39023;DHT22;25908;51.984;5.928;2023-05-21T03:39:14;16.00;92.80
39023;DHT22;25908;51.984;5.928;2023-05-21T03:41:39;15.90;92.80
39023;DHT22;25908;51.984;5.928;2023-05-21T03:44:05;15.90;92.90
39023;DHT22;25908;51.984;5.928;2023-05-21T03:46:31;15.90;93.00
39023;DHT22;25908;51.984;5.928;2023-05-21T03:48:57;15.90;93.10
39023;DHT22;25908;51.984;5.928;2023-05-21T03:51:23;15.90;93.10
39023;DHT22;25908;51.984;5.928;2023-05-21T03:53:49;15.90;93.50
39023;DHT22;25908;51.984;5.928;2023-05-21T03:56:15;15.90;93.30
39023;DHT22;25908;51.984;5.928;2023-05-21T03:58:41;15.90;93.30
39023;DHT22;25908;51.984;5.928;2023-05-21T04:01:06;15.90;93.40
39023;DHT22;25908;51.984;5.928;2023-05-21T04:03:33;15.90;93.50
39023;DHT22;25908;51.984;5.928;2023-05-21T04:06:00;15.90;93.50
39023;DHT22;25908;51.984;5.928;2023-05-21T04:08:25;15.90;93.60
39023;DHT22;25908;51.984;5.928;2023-05-21T04:10:51;15.90;93.70
39023;DHT22;25908;51.984;5.928;2023-05-21T04:13:17;15.80;93.70
39023;DHT22;25908;51.984;5.928;2023-05-21T04:15:42;15.80;93.90
39023;DHT22;25908;51.984;5.928;2023-05-21T04:18:11;15.80;93.90
39023;DHT22;25908;51.984;5.928;2023-05-21T04:20:38;15.80;94.00
39023;DHT22;25908;51.984;5.928;2023-05-21T04:23:03;15.80;94.10
39023;DHT22;25908;51.984;5.928;2023-05-21T04:25:29;15.80;94.20
39023;DHT22;25908;51.984;5.928;2023-05-21T04:27:54;15.90;94.30
39023;DHT22;25908;51.984;5.928;2023-05-21T04:30:20;15.80;94.30
39023;DHT22;25908;51.984;5.928;2023-05-21T04:32:46;15.80;94.40
39023;DHT22;25908;51.984;5.928;2023-05-21T04:35:12;15.80;94.50
39023;DHT22;25908;51.984;5.928;2023-05-21T04:37:39;15.80;94.60
39023;DHT22;25908;51.984;5.928;2023-05-21T04:40:07;15.90;94.70
39023;DHT22;25908;51.984;5.928;2023-05-21T04:42:33;15.80;94.80
39023;DHT22;25908;51.984;5.928;2023-05-21T04:44:59;15.90;94.90
39023;DHT22;25908;51.984;5.928;2023-05-21T04:47:25;15.80;95.00
39023;DHT22;25908;51.984;5.928;2023-05-21T04:49:50;15.80;95.10
39023;DHT22;25908;51.984;5.928;2023-05-21T04:52:16;15.90;95.20
39023;DHT22;25908;51.984;5.928;2023-05-21T04:54:41;15.80;95.20
39023;DHT22;25908;51.984;5.928;2023-05-21T04:57:07;15.90;95.30
39023;DHT22;25908;51.984;5.928;2023-05-21T04:59:33;15.90;95.70
39023;DHT22;25908;51.984;5.928;2023-05-21T05:01:59;15.90;95.50
39023;DHT22;25908;51.984;5.928;2023-05-21T05:04:25;15.90;95.50
39023;DHT22;25908;51.984;5.928;2023-05-21T05:06:50;15.80;95.50
39023;DHT22;25908;51.984;5.928;2023-05-21T05:09:17;15.90;95.60
39023;DHT22;25908;51.984;5.928;2023-05-21T05:11:42;15.90;95.70
39023;DHT22;25908;51.984;5.928;2023-05-21T05:14:08;15.90;95.80
39023;DHT22;25908;51.984;5.928;2023-05-21T05:16:33;15.90;95.90
39023;DHT22;25908;51.984;5.928;2023-05-21T05:18:59;16.00;96.00
39023;DHT22;25908;51.984;5.928;2023-05-21T05:21:25;15.90;96.10
39023;DHT22;25908;51.984;5.928;2023-05-21T05:23:51;15.90;96.20
39023;DHT22;25908;51.984;5.928;2023-05-21T05:26:17;16.00;96.30
39023;DHT22;25908;51.984;5.928;2023-05-21T05:28:42;16.00;96.30
39023;DHT22;25908;51.984;5.928;2023-05-21T05:31:08;16.00;96.40
39023;DHT22;25908;51.984;5.928;2023-05-21T05:33:33;16.00;96.40
39023;DHT22;25908;51.984;5.928;2023-05-21T05:35:59;16.10;96.50
39023;DHT22;25908;51.984;5.928;2023-05-21T05:38:25;16.10;96.50
39023;DHT22;25908;51.984;5.928;2023-05-21T05:40:51;16.00;96.60
39023;DHT22;25908;51.984;5.928;2023-05-21T05:43:17;16.10;96.70
39023;DHT22;25908;51.984;5.928;2023-05-21T05:45:42;16.00;96.80
39023;DHT22;25908;51.984;5.928;2023-05-21T05:48:08;16.10;96.80
39023;DHT22;25908;51.984;5.928;2023-05-21T05:50:33;16.10;96.90
39023;DHT22;25908;51.984;5.928;2023-05-21T05:52:59;16.10;96.90
39023;DHT22;25908;51.984;5.928;2023-05-21T05:55:24;16.10;97.00
39023;DHT22;25908;51.984;5.928;2023-05-21T05:57:51;16.10;97.00
39023;DHT22;25908;51.984;5.928;2023-05-21T06:00:16;16.20;97.00
39023;DHT22;25908;51.984;5.928;2023-05-21T06:02:42;16.20;97.10
39023;DHT22;25908;51.984;5.928;2023-05-21T06:05:08;16.20;97.10
39023;DHT22;25908;51.984;5.928;2023-05-21T06:07:36;16.20;97.20
39023;DHT22;25908;51.984;5.928;2023-05-21T06:10:03;16.20;97.20
39023;DHT22;25908;51.984;5.928;2023-05-21T06:12:29;16.30;97.20
39023;DHT22;25908;51.984;5.928;2023-05-21T06:14:55;16.30;97.20
39023;DHT22;25908;51.984;5.928;2023-05-21T06:17:20;16.40;97.20
39023;DHT22;25908;51.984;5.928;2023-05-21T06:19:46;16.40;97.20
39023;DHT22;25908;51.984;5.928;2023-05-21T06:22:11;16.40;97.10
39023;DHT22;25908;51.984;5.928;2023-05-21T06:24:37;16.50;97.20
39023;DHT22;25908;51.984;5.928;2023-05-21T06:27:03;16.50;97.10
39023;DHT22;25908;51.984;5.928;2023-05-21T06:29:28;16.50;97.10
39023;DHT22;25908;51.984;5.928;2023-05-21T06:31:54;16.60;97.10
39023;DHT22;25908;51.984;5.928;2023-05-21T06:34:19;16.70;97.10
39023;DHT22;25908;51.984;5.928;2023-05-21T06:36:45;16.80;97.00
39023;DHT22;25908;51.984;5.928;2023-05-21T06:39:10;16.80;96.80
39023;DHT22;25908;51.984;5.928;2023-05-21T06:41:36;16.90;96.80
39023;DHT22;25908;51.984;5.928;2023-05-21T06:44:01;17.00;96.70
39023;DHT22;25908;51.984;5.928;2023-05-21T06:46:27;17.00;96.60
39023;DHT22;25908;51.984;5.928;2023-05-21T06:48:53;17.10;96.50
39023;DHT22;25908;51.984;5.928;2023-05-21T06:51:18;17.20;96.50
39023;DHT22;25908;51.984;5.928;2023-05-21T06:53:44;17.40;96.60
39023;DHT22;25908;51.984;5.928;2023-05-21T06:56:09;17.60;96.40
39023;DHT22;25908;51.984;5.928;2023-05-21T06:58:35;17.90;95.80
39023;DHT22;25908;51.984;5.928;2023-05-21T07:01:00;18.10;95.30
39023;DHT22;25908;51.984;5.928;2023-05-21T07:03:26;18.30;95.10
39023;DHT22;25908;51.984;5.928;2023-05-21T07:05:52;18.50;94.70
39023;DHT22;25908;51.984;5.928;2023-05-21T07:08:18;18.80;94.30
39023;DHT22;25908;51.984;5.928;2023-05-21T07:10:47;19.10;94.00
39023;DHT22;25908;51.984;5.928;2023-05-21T07:13:13;19.40;93.50
39023;DHT22;25908;51.984;5.928;2023-05-21T07:15:39;19.60;93.30
39023;DHT22;25908;51.984;5.928;2023-05-21T07:18:05;19.80;92.70
39023;DHT22;25908;51.984;5.928;2023-05-21T07:20:31;20.10;92.30
39023;DHT22;25908;51.984;5.928;2023-05-21T07:22:56;20.30;92.00
39023;DHT22;25908;51.984;5.928;2023-05-21T07:25:22;20.50;91.50
39023;DHT22;25908;51.984;5.928;2023-05-21T07:27:48;20.50;90.90
39023;DHT22;25908;51.984;5.928;2023-05-21T07:30:14;20.50;90.80
39023;DHT22;25908;51.984;5.928;2023-05-21T07:32:40;20.50;90.60
39023;DHT22;25908;51.984;5.928;2023-05-21T07:35:05;20.50;90.40
39023;DHT22;25908;51.984;5.928;2023-05-21T07:37:31;20.60;90.40
39023;DHT22;25908;51.984;5.928;2023-05-21T07:39:57;20.80;90.30
39023;DHT22;25908;51.984;5.928;2023-05-21T07:42:23;20.80;89.60
39023;DHT22;25908;51.984;5.928;2023-05-21T07:44:49;20.90;89.60
39023;DHT22;25908;51.984;5.928;2023-05-21T07:47:14;20.90;89.30
39023;DHT22;25908;51.984;5.928;2023-05-21T07:49:40;20.70;89.00
39023;DHT22;25908;51.984;5.928;2023-05-21T07:52:05;20.90;89.30
39023;DHT22;25908;51.984;5.928;2023-05-21T07:54:31;21.00;88.80
39023;DHT22;25908;51.984;5.928;2023-05-21T07:56:57;21.10;88.30
39023;DHT22;25908;51.984;5.928;2023-05-21T07:59:23;21.20;88.30
39023;DHT22;25908;51.984;5.928;2023-05-21T08:01:48;21.40;88.10
39023;DHT22;25908;51.984;5.928;2023-05-21T08:04:14;21.50;87.60
39023;DHT22;25908;51.984;5.928;2023-05-21T08:06:39;21.60;87.00
39023;DHT22;25908;51.984;5.928;2023-05-21T08:09:05;21.70;86.50
39023;DHT22;25908;51.984;5.928;2023-05-21T08:11:31;21.60;86.30
39023;DHT22;25908;51.984;5.928;2023-05-21T08:13:57;21.80;86.20
39023;DHT22;25908;51.984;5.928;2023-05-21T08:16:22;21.90;85.80
39023;DHT22;25908;51.984;5.928;2023-05-21T08:18:51;22.20;85.60
39023;DHT22;25908;51.984;5.928;2023-05-21T08:21:16;22.30;84.60
39023;DHT22;25908;51.984;5.928;2023-05-21T08:23:43;22.50;84.20
39023;DHT22;25908;51.984;5.928;2023-05-21T08:26:08;22.60;83.40
39023;DHT22;25908;51.984;5.928;2023-05-21T08:28:37;22.70;83.40
39023;DHT22;25908;51.984;5.928;2023-05-21T08:31:03;23.00;82.80
39023;DHT22;25908;51.984;5.928;2023-05-21T08:33:28;23.30;81.70
39023;DHT22;25908;51.984;5.928;2023-05-21T08:35:54;23.50;80.60
39023;DHT22;25908;51.984;5.928;2023-05-21T08:38:19;23.60;79.50
39023;DHT22;25908;51.984;5.928;2023-05-21T08:40:45;23.60;79.30
39023;DHT22;25908;51.984;5.928;2023-05-21T08:43:15;23.70;79.50
39023;DHT22;25908;51.984;5.928;2023-05-21T08:45:43;23.70;79.10
39023;DHT22;25908;51.984;5.928;2023-05-21T08:48:10;23.80;78.30
39023;DHT22;25908;51.984;5.928;2023-05-21T08:50:36;23.90;78.40
39023;DHT22;25908;51.984;5.928;2023-05-21T08:53:02;24.00;78.10
39023;DHT22;25908;51.984;5.928;2023-05-21T08:55:28;24.30;77.80
39023;DHT22;25908;51.984;5.928;2023-05-21T08:57:55;24.50;77.50
39023;DHT22;25908;51.984;5.928;2023-05-21T09:00:21;24.70;77.10
39023;DHT22;25908;51.984;5.928;2023-05-21T09:02:46;24.80;76.10
39023;DHT22;25908;51.984;5.928;2023-05-21T09:05:13;24.90;75.60
39023;DHT22;25908;51.984;5.928;2023-05-21T09:07:49;24.90;75.10
39023;DHT22;25908;51.984;5.928;2023-05-21T09:10:22;24.90;75.00
39023;DHT22;25908;51.984;5.928;2023-05-21T09:12:48;24.90;74.90
39023;DHT22;25908;51.984;5.928;2023-05-21T09:15:14;24.90;74.80
39023;DHT22;25908;51.984;5.928;2023-05-21T09:17:39;24.70;74.90
39023;DHT22;25908;51.984;5.928;2023-05-21T09:22:48;24.80;75.20
39023;DHT22;25908;51.984;5.928;2023-05-21T09:25:25;24.80;74.80
39023;DHT22;25908;51.984;5.928;2023-05-21T09:27:57;24.70;74.90
39023;DHT22;25908;51.984;5.928;2023-05-21T09:30:23;24.90;74.80
39023;DHT22;25908;51.984;5.928;2023-05-21T09:32:55;24.90;74.40
39023;DHT22;25908;51.984;5.928;2023-05-21T09:35:21;25.00;74.30
39023;DHT22;25908;51.984;5.928;2023-05-21T09:37:48;25.10;73.90
39023;DHT22;25908;51.984;5.928;2023-05-21T09:42:47;25.30;73.10
39023;DHT22;25908;51.984;5.928;2023-05-21T09:45:21;25.40;72.90
39023;DHT22;25908;51.984;5.928;2023-05-21T09:47:48;25.40;72.50
39023;DHT22;25908;51.984;5.928;2023-05-21T09:50:25;25.40;72.50
39023;DHT22;25908;51.984;5.928;2023-05-21T09:52:54;25.50;72.60
39023;DHT22;25908;51.984;5.928;2023-05-21T09:55:24;25.60;72.10
39023;DHT22;25908;51.984;5.928;2023-05-21T09:57:51;25.60;71.50
39023;DHT22;25908;51.984;5.928;2023-05-21T10:00:21;25.60;71.60
39023;DHT22;25908;51.984;5.928;2023-05-21T10:02:48;25.70;72.00
39023;DHT22;25908;51.984;5.928;2023-05-21T10:05:15;25.80;71.90
39023;DHT22;25908;51.984;5.928;2023-05-21T10:07:49;25.80;71.30
39023;DHT22;25908;51.984;5.928;2023-05-21T10:10:15;25.70;70.90
39023;DHT22;25908;51.984;5.928;2023-05-21T10:12:45;25.50;71.00
39023;DHT22;25908;51.984;5.928;2023-05-21T10:15:14;25.50;71.70
39023;DHT22;25908;51.984;5.928;2023-05-21T10:17:41;25.60;71.80
39023;DHT22;25908;51.984;5.928;2023-05-21T10:20:09;25.50;71.50
39023;DHT22;25908;51.984;5.928;2023-05-21T10:22:36;25.40;71.40
39023;DHT22;25908;51.984;5.928;2023-05-21T10:25:01;25.30;71.40
39023;DHT22;25908;51.984;5.928;2023-05-21T10:27:29;25.30;71.40
39023;DHT22;25908;51.984;5.928;2023-05-21T10:29:56;25.30;71.80
39023;DHT22;25908;51.984;5.928;2023-05-21T10:32:25;25.20;72.00
39023;DHT22;25908;51.984;5.928;2023-05-21T10:34:52;25.40;72.10
39023;DHT22;25908;51.984;5.928;2023-05-21T10:37:20;25.60;71.90
39023;DHT22;25908;51.984;5.928;2023-05-21T10:39:47;25.60;71.60
39023;DHT22;25908;51.984;5.928;2023-05-21T10:45:41;25.80;71.00
39023;DHT22;25908;51.984;5.928;2023-05-21T10:48:57;25.80;71.00
39023;DHT22;25908;51.984;5.928;2023-05-21T10:59:41;25.90;70.30
39023;DHT22;25908;51.984;5.928;2023-05-21T11:02:08;25.70;70.10
39023;DHT22;25908;51.984;5.928;2023-05-21T11:04:35;25.70;70.70
39023;DHT22;25908;51.984;5.928;2023-05-21T11:07:04;25.70;70.90
39023;DHT22;25908;51.984;5.928;2023-05-21T11:09:30;25.70;70.60
39023;DHT22;25908;51.984;5.928;2023-05-21T11:11:57;25.70;71.00
39023;DHT22;25908;51.984;5.928;2023-05-21T11:19:38;25.90;71.10
39023;DHT22;25908;51.984;5.928;2023-05-21T11:22:09;26.00;70.50
39023;DHT22;25908;51.984;5.928;2023-05-21T11:24:44;25.90;70.10
39023;DHT22;25908;51.984;5.928;2023-05-21T11:27:09;25.80;71.20
39023;DHT22;25908;51.984;5.928;2023-05-21T11:29:42;25.80;71.30
39023;DHT22;25908;51.984;5.928;2023-05-21T11:32:10;25.80;71.10
39023;DHT22;25908;51.984;5.928;2023-05-21T11:34:42;25.80;71.00
39023;DHT22;25908;51.984;5.928;2023-05-21T11:39:43;25.90;71.00
39023;DHT22;25908;51.984;5.928;2023-05-21T11:42:08;26.00;71.00
39023;DHT22;25908;51.984;5.928;2023-05-21T11:44:45;26.00;70.70
39023;DHT22;25908;51.984;5.928;2023-05-21T11:47:20;25.90;70.90
39023;DHT22;25908;51.984;5.928;2023-05-21T11:49:46;25.90;71.00
39023;DHT22;25908;51.984;5.928;2023-05-21T11:52:12;25.90;71.10
39023;DHT22;25908;51.984;5.928;2023-05-21T11:54:43;25.90;71.10
39023;DHT22;25908;51.984;5.928;2023-05-21T11:57:16;25.90;70.80
39023;DHT22;25908;51.984;5.928;2023-05-21T11:59:47;25.80;70.90
39023;DHT22;25908;51.984;5.928;2023-05-21T12:02:22;25.80;71.10
39023;DHT22;25908;51.984;5.928;2023-05-21T12:04:49;25.80;71.30
39023;DHT22;25908;51.984;5.928;2023-05-21T12:07:16;25.80;71.30
39023;DHT22;25908;51.984;5.928;2023-05-21T12:09:46;25.80;71.30
39023;DHT22;25908;51.984;5.928;2023-05-21T12:12:17;25.80;71.30
39023;DHT22;25908;51.984;5.928;2023-05-21T12:14:48;25.70;71.80
39023;DHT22;25908;51.984;5.928;2023-05-21T12:17:17;25.60;71.30
39023;DHT22;25908;51.984;5.928;2023-05-21T12:19:44;25.50;71.40
39023;DHT22;25908;51.984;5.928;2023-05-21T12:22:10;25.40;71.70
39023;DHT22;25908;51.984;5.928;2023-05-21T12:24:36;25.40;71.90
39023;DHT22;25908;51.984;5.928;2023-05-21T12:27:04;25.40;72.10
39023;DHT22;25908;51.984;5.928;2023-05-21T12:29:36;25.30;72.30
39023;DHT22;25908;51.984;5.928;2023-05-21T12:32:08;25.30;72.40
39023;DHT22;25908;51.984;5.928;2023-05-21T12:34:49;25.30;72.40
39023;DHT22;25908;51.984;5.928;2023-05-21T12:37:19;25.30;72.50
39023;DHT22;25908;51.984;5.928;2023-05-21T12:39:46;25.20;72.60
39023;DHT22;25908;51.984;5.928;2023-05-21T12:42:13;25.10;72.50
39023;DHT22;25908;51.984;5.928;2023-05-21T12:44:48;25.10;72.90
39023;DHT22;25908;51.984;5.928;2023-05-21T12:47:14;25.10;73.30
39023;DHT22;25908;51.984;5.928;2023-05-21T12:49:41;25.10;73.10
39023;DHT22;25908;51.984;5.928;2023-05-21T12:52:11;25.00;72.90
39023;DHT22;25908;51.984;5.928;2023-05-21T12:54:39;25.00;73.10
39023;DHT22;25908;51.984;5.928;2023-05-21T12:57:08;24.90;73.40
39023;DHT22;25908;51.984;5.928;2023-05-21T12:59:45;25.00;73.60
39023;DHT22;25908;51.984;5.928;2023-05-21T13:02:15;25.00;73.60
39023;DHT22;25908;51.984;5.928;2023-05-21T13:04:41;25.00;73.70
39023;DHT22;25908;51.984;5.928;2023-05-21T13:07:06;24.90;73.70
39023;DHT22;25908;51.984;5.928;2023-05-21T13:09:32;24.90;73.60
39023;DHT22;25908;51.984;5.928;2023-05-21T13:11:58;24.70;73.70
39023;DHT22;25908;51.984;5.928;2023-05-21T13:14:23;24.60;73.90
39023;DHT22;25908;51.984;5.928;2023-05-21T13:16:49;24.60;74.30
39023;DHT22;25908;51.984;5.928;2023-05-21T13:19:14;24.50;74.50
39023;DHT22;25908;51.984;5.928;2023-05-21T13:21:40;24.50;74.70
39023;DHT22;25908;51.984;5.928;2023-05-21T13:24:06;24.50;74.60
39023;DHT22;25908;51.984;5.928;2023-05-21T13:26:32;24.50;74.50
39023;DHT22;25908;51.984;5.928;2023-05-21T13:28:57;24.50;74.70
39023;DHT22;25908;51.984;5.928;2023-05-21T13:31:23;24.50;75.00
39023;DHT22;25908;51.984;5.928;2023-05-21T13:33:48;24.50;75.10
39023;DHT22;25908;51.984;5.928;2023-05-21T13:36:14;24.50;75.20
39023;DHT22;25908;51.984;5.928;2023-05-21T13:38:39;24.50;75.20
39023;DHT22;25908;51.984;5.928;2023-05-21T13:41:05;24.50;75.20
39023;DHT22;25908;51.984;5.928;2023-05-21T13:43:31;24.50;75.20
39023;DHT22;25908;51.984;5.928;2023-05-21T13:45:56;24.50;75.20
39023;DHT22;25908;51.984;5.928;2023-05-21T13:48:22;24.50;75.30
39023;DHT22;25908;51.984;5.928;2023-05-21T13:50:47;24.50;75.40
39023;DHT22;25908;51.984;5.928;2023-05-21T13:53:13;24.50;75.60
39023;DHT22;25908;51.984;5.928;2023-05-21T13:55:38;24.50;75.90
39023;DHT22;25908;51.984;5.928;2023-05-21T13:58:04;24.50;76.60
39023;DHT22;25908;51.984;5.928;2023-05-21T14:00:30;24.60;76.10
39023;DHT22;25908;51.984;5.928;2023-05-21T14:02:55;24.50;75.90
39023;DHT22;25908;51.984;5.928;2023-05-21T14:05:21;24.50;76.10
39023;DHT22;25908;51.984;5.928;2023-05-21T14:07:46;24.40;76.30
39023;DHT22;25908;51.984;5.928;2023-05-21T14:10:12;24.40;76.70
39023;DHT22;25908;51.984;5.928;2023-05-21T14:12:39;24.30;76.70
39023;DHT22;25908;51.984;5.928;2023-05-21T14:15:05;24.30;77.20
39023;DHT22;25908;51.984;5.928;2023-05-21T14:17:31;24.20;77.30
39023;DHT22;25908;51.984;5.928;2023-05-21T14:19:57;24.20;78.00
39023;DHT22;25908;51.984;5.928;2023-05-21T14:22:22;24.20;77.40
39023;DHT22;25908;51.984;5.928;2023-05-21T14:24:48;24.10;77.50
39023;DHT22;25908;51.984;5.928;2023-05-21T14:27:14;24.20;77.70
39023;DHT22;25908;51.984;5.928;2023-05-21T14:29:40;24.10;77.80
39023;DHT22;25908;51.984;5.928;2023-05-21T14:32:06;24.20;77.90
39023;DHT22;25908;51.984;5.928;2023-05-21T14:34:32;24.20;77.90
39023;DHT22;25908;51.984;5.928;2023-05-21T14:36:57;24.20;78.00
39023;DHT22;25908;51.984;5.928;2023-05-21T14:39:23;24.20;78.00
39023;DHT22;25908;51.984;5.928;2023-05-21T14:41:48;24.10;78.00
39023;DHT22;25908;51.984;5.928;2023-05-21T14:44:14;24.10;78.10
39023;DHT22;25908;51.984;5.928;2023-05-21T14:46:40;24.10;78.20
39023;DHT22;25908;51.984;5.928;2023-05-21T14:49:05;24.10;78.30
39023;DHT22;25908;51.984;5.928;2023-05-21T14:51:31;24.00;78.40
39023;DHT22;25908;51.984;5.928;2023-05-21T14:53:56;24.00;78.50
39023;DHT22;25908;51.984;5.928;2023-05-21T14:56:22;24.00;78.70
39023;DHT22;25908;51.984;5.928;2023-05-21T14:58:51;24.00;78.80
39023;DHT22;25908;51.984;5.928;2023-05-21T15:01:17;24.00;78.90
39023;DHT22;25908;51.984;5.928;2023-05-21T15:03:42;24.00;79.00
39023;DHT22;25908;51.984;5.928;2023-05-21T15:06:08;24.10;79.00
39023;DHT22;25908;51.984;5.928;2023-05-21T15:08:33;24.10;79.00
39023;DHT22;25908;51.984;5.928;2023-05-21T15:10:59;24.10;78.90
39023;DHT22;25908;51.984;5.928;2023-05-21T15:13:24;24.20;78.80
39023;DHT22;25908;51.984;5.928;2023-05-21T15:15:51;24.10;78.70
39023;DHT22;25908;51.984;5.928;2023-05-21T15:18:17;24.00;78.70
39023;DHT22;25908;51.984;5.928;2023-05-21T15:20:42;24.10;78.90
39023;DHT22;25908;51.984;5.928;2023-05-21T15:23:08;24.10;79.00
39023;DHT22;25908;51.984;5.928;2023-05-21T15:25:34;24.10;79.00
39023;DHT22;25908;51.984;5.928;2023-05-21T15:27:59;24.00;79.00
39023;DHT22;25908;51.984;5.928;2023-05-21T15:30:25;24.10;79.20
39023;DHT22;25908;51.984;5.928;2023-05-21T15:32:52;24.00;79.20
39023;DHT22;25908;51.984;5.928;2023-05-21T15:35:17;24.00;79.30
39023;DHT22;25908;51.984;5.928;2023-05-21T15:37:43;24.00;79.40
39023;DHT22;25908;51.984;5.928;2023-05-21T15:40:10;23.90;79.40
39023;DHT22;25908;51.984;5.928;2023-05-21T15:42:35;24.00;79.50
39023;DHT22;25908;51.984;5.928;2023-05-21T15:45:01;23.90;79.70
39023;DHT22;25908;51.984;5.928;2023-05-21T15:47:27;23.90;79.60
39023;DHT22;25908;51.984;5.928;2023-05-21T15:49:52;23.90;79.40
39023;DHT22;25908;51.984;5.928;2023-05-21T15:52:18;23.90;79.40
39023;DHT22;25908;51.984;5.928;2023-05-21T15:54:44;23.90;79.50